sensor_id;sensor_type;location;lat;lon;timestamp;P1;P2;P0
69123;PMS5003;56232;53.384;-2.732;2022-11-12T00:01:51;8;8;
69123;PMS5003;56232;53.384;-2.732;2022-11-12T00:04:17;8;8;
69123;PMS5003;56232;53.384;-2.732;2022-11-12T00:06:43;9;8;
69123;PMS5003;56232;53.384;-2.732;2022-11-12T00:09:09;11;10;
69123;PMS5003;56232;53.384;-2.732;2022-11-12T00:11:34;11;10;
69123;PMS5003;56232;53.384;-2.732;2022-11-12T00:14:00;12;11;
69123;PMS5003;56232;53.384;-2.732;2022-11-12T00:16:25;10;9;
69123;PMS5003;56232;53.384;-2.732;2022-11-12T00:18:51;13;10;
69123;PMS5003;56232;53.384;-2.732;2022-11-12T00:21:17;14;13;
69123;PMS5003;56232;53.384;-2.732;2022-11-12T00:23:42;14;13;
69123;PMS5003;56232;53.384;-2.732;2022-11-12T00:26:08;13;12;
69123;PMS5003;56232;53.384;-2.732;2022-11-12T00:28:33;12;12;
69123;PMS5003;56232;53.384;-2.732;2022-11-12T00:30:59;15;14;
69123;PMS5003;56232;53.384;-2.732;2022-11-12T00:33:24;20;14;
69123;PMS5003;56232;53.384;-2.732;2022-11-12T00:35:50;14;13;
69123;PMS5003;56232;53.384;-2.732;2022-11-12T00:38:15;12;11;
69123;PMS5003;56232;53.384;-2.732;2022-11-12T00:40:41;14;13;
69123;PMS5003;56232;53.384;-2.732;2022-11-12T00:43:07;20;15;
69123;PMS5003;56232;53.384;-2.732;2022-11-12T00:45:32;14;13;
69123;PMS5003;56232;53.384;-2.732;2022-11-12T00:47:58;13;13;
69123;PMS5003;56232;53.384;-2.732;2022-11-12T00:50:23;14;12;
69123;PMS5003;56232;53.384;-2.732;2022-11-12T00:52:50;15;14;
69123;PMS5003;56232;53.384;-2.732;2022-11-12T00:55:15;14;14;
69123;PMS5003;56232;53.384;-2.732;2022-11-12T00:57:40;13;13;
69123;PMS5003;56232;53.384;-2.732;2022-11-12T01:00:06;13;12;
69123;PMS5003;56232;53.384;-2.732;2022-11-12T01:02:32;12;11;
69123;PMS5003;56232;53.384;-2.732;2022-11-12T01:04:57;14;13;
69123;PMS5003;56232;53.384;-2.732;2022-11-12T01:07:27;12;12;
69123;PMS5003;56232;53.384;-2.732;2022-11-12T01:09:48;12;12;
69123;PMS5003;56232;53.384;-2.732;2022-11-12T01:12:13;15;14;
69123;PMS5003;56232;53.384;-2.732;2022-11-12T01:14:39;15;14;
69123;PMS5003;56232;53.384;-2.732;2022-11-12T01:17:04;20;17;
69123;PMS5003;56232;53.384;-2.732;2022-11-12T01:19:29;18;18;
69123;PMS5003;56232;53.384;-2.732;2022-11-12T01:21:55;23;23;
69123;PMS5003;56232;53.384;-2.732;2022-11-12T01:24:20;23;23;
69123;PMS5003;56232;53.384;-2.732;2022-11-12T01:26:46;29;27;
69123;PMS5003;56232;53.384;-2.732;2022-11-12T01:29:11;20;20;
69123;PMS5003;56232;53.384;-2.732;2022-11-12T01:31:36;26;22;
69123;PMS5003;56232;53.384;-2.732;2022-11-12T01:34:02;21;20;
69123;PMS5003;56232;53.384;-2.732;2022-11-12T01:36:27;20;20;
69123;PMS5003;56232;53.384;-2.732;2022-11-12T01:38:52;24;20;
69123;PMS5003;56232;53.384;-2.732;2022-11-12T01:41:18;25;22;
69123;PMS5003;56232;53.384;-2.732;2022-11-12T01:43:43;24;22;
69123;PMS5003;56232;53.384;-2.732;2022-11-12T01:46:11;25;25;
69123;PMS5003;56232;53.384;-2.732;2022-11-12T01:48:35;24;23;
69123;PMS5003;56232;53.384;-2.732;2022-11-12T01:51:00;26;25;
69123;PMS5003;56232;53.384;-2.732;2022-11-12T01:53:25;28;28;
69123;PMS5003;56232;53.384;-2.732;2022-11-12T01:55:50;32;30;
69123;PMS5003;56232;53.384;-2.732;2022-11-12T01:58:17;37;32;
69123;PMS5003;56232;53.384;-2.732;2022-11-12T02:00:42;31;28;
69123;PMS5003;56232;53.384;-2.732;2022-11-12T02:03:09;25;24;
69123;PMS5003;56232;53.384;-2.732;2022-11-12T02:05:33;26;24;
69123;PMS5003;56232;53.384;-2.732;2022-11-12T02:07:59;23;23;
69123;PMS5003;56232;53.384;-2.732;2022-11-12T02:10:24;31;24;
69123;PMS5003;56232;53.384;-2.732;2022-11-12T02:12:50;23;20;
69123;PMS5003;56232;53.384;-2.732;2022-11-12T02:15:15;27;24;
69123;PMS5003;56232;53.384;-2.732;2022-11-12T02:17:40;38;31;
69123;PMS5003;56232;53.384;-2.732;2022-11-12T02:20:07;28;26;
69123;PMS5003;56232;53.384;-2.732;2022-11-12T02:22:31;28;28;
69123;PMS5003;56232;53.384;-2.732;2022-11-12T02:24:57;26;25;
69123;PMS5003;56232;53.384;-2.732;2022-11-12T02:27:23;30;26;
69123;PMS5003;56232;53.384;-2.732;2022-11-12T02:29:48;27;24;
69123;PMS5003;56232;53.384;-2.732;2022-11-12T02:32:13;25;24;
69123;PMS5003;56232;53.384;-2.732;2022-11-12T02:34:39;31;26;
69123;PMS5003;56232;53.384;-2.732;2022-11-12T02:37:04;33;29;
69123;PMS5003;56232;53.384;-2.732;2022-11-12T02:39:29;22;22;
69123;PMS5003;56232;53.384;-2.732;2022-11-12T02:41:55;24;23;
69123;PMS5003;56232;53.384;-2.732;2022-11-12T02:44:21;21;21;
69123;PMS5003;56232;53.384;-2.732;2022-11-12T02:46:46;19;18;
69123;PMS5003;56232;53.384;-2.732;2022-11-12T02:49:12;19;18;
69123;PMS5003;56232;53.384;-2.732;2022-11-12T02:51:37;20;19;
69123;PMS5003;56232;53.384;-2.732;2022-11-12T02:54:03;21;21;
69123;PMS5003;56232;53.384;-2.732;2022-11-12T02:56:28;26;22;
69123;PMS5003;56232;53.384;-2.732;2022-11-12T02:58:53;20;19;
69123;PMS5003;56232;53.384;-2.732;2022-11-12T03:01:18;18;17;
69123;PMS5003;56232;53.384;-2.732;2022-11-12T03:03:44;17;17;
69123;PMS5003;56232;53.384;-2.732;2022-11-12T03:06:10;21;20;
69123;PMS5003;56232;53.384;-2.732;2022-11-12T03:08:35;19;19;
69123;PMS5003;56232;53.384;-2.732;2022-11-12T03:11:04;19;18;
69123;PMS5003;56232;53.384;-2.732;2022-11-12T03:13:26;22;22;
69123;PMS5003;56232;53.384;-2.732;2022-11-12T03:18:17;24;23;
69123;PMS5003;56232;53.384;-2.732;2022-11-12T03:20:43;29;25;
69123;PMS5003;56232;53.384;-2.732;2022-11-12T03:23:09;31;28;
69123;PMS5003;56232;53.384;-2.732;2022-11-12T03:25:34;28;27;
69123;PMS5003;56232;53.384;-2.732;2022-11-12T03:27:59;23;22;
69123;PMS5003;56232;53.384;-2.732;2022-11-12T03:30:25;24;23;
69123;PMS5003;56232;53.384;-2.732;2022-11-12T03:32:50;26;24;
69123;PMS5003;56232;53.384;-2.732;2022-11-12T03:35:15;23;22;
69123;PMS5003;56232;53.384;-2.732;2022-11-12T03:37:41;24;23;
69123;PMS5003;56232;53.384;-2.732;2022-11-12T03:40:11;22;21;
69123;PMS5003;56232;53.384;-2.732;2022-11-12T03:42:32;22;20;
69123;PMS5003;56232;53.384;-2.732;2022-11-12T03:44:58;21;21;
69123;PMS5003;56232;53.384;-2.732;2022-11-12T03:47:23;24;22;
69123;PMS5003;56232;53.384;-2.732;2022-11-12T03:49:49;23;21;
69123;PMS5003;56232;53.384;-2.732;2022-11-12T03:52:14;20;19;
69123;PMS5003;56232;53.384;-2.732;2022-11-12T03:54:40;30;22;
69123;PMS5003;56232;53.384;-2.732;2022-11-12T03:57:11;29;26;
69123;PMS5003;56232;53.384;-2.732;2022-11-12T03:59:31;22;21;
69123;PMS5003;56232;53.384;-2.732;2022-11-12T04:01:56;24;21;
69123;PMS5003;56232;53.384;-2.732;2022-11-12T04:04:22;28;27;
69123;PMS5003;56232;53.384;-2.732;2022-11-12T04:06:47;29;24;
69123;PMS5003;56232;53.384;-2.732;2022-11-12T04:09:13;26;21;
69123;PMS5003;56232;53.384;-2.732;2022-11-12T04:11:38;26;23;
69123;PMS5003;56232;53.384;-2.732;2022-11-12T04:14:03;22;21;
69123;PMS5003;56232;53.384;-2.732;2022-11-12T04:16:28;25;25;
69123;PMS5003;56232;53.384;-2.732;2022-11-12T04:18:55;29;26;
69123;PMS5003;56232;53.384;-2.732;2022-11-12T04:21:19;35;31;
69123;PMS5003;56232;53.384;-2.732;2022-11-12T04:23:45;27;25;
69123;PMS5003;56232;53.384;-2.732;2022-11-12T04:26:10;24;23;
69123;PMS5003;56232;53.384;-2.732;2022-11-12T04:28:35;24;23;
69123;PMS5003;56232;53.384;-2.732;2022-11-12T04:31:01;25;24;
69123;PMS5003;56232;53.384;-2.732;2022-11-12T04:33:26;24;23;
69123;PMS5003;56232;53.384;-2.732;2022-11-12T04:35:52;23;23;
69123;PMS5003;56232;53.384;-2.732;2022-11-12T04:38:17;29;27;
69123;PMS5003;56232;53.384;-2.732;2022-11-12T04:40:43;36;34;
69123;PMS5003;56232;53.384;-2.732;2022-11-12T04:43:09;27;25;
69123;PMS5003;56232;53.384;-2.732;2022-11-12T04:45:34;27;27;
69123;PMS5003;56232;53.384;-2.732;2022-11-12T04:47:59;28;27;
69123;PMS5003;56232;53.384;-2.732;2022-11-12T04:50:24;27;26;
69123;PMS5003;56232;53.384;-2.732;2022-11-12T04:52:50;26;26;
69123;PMS5003;56232;53.384;-2.732;2022-11-12T04:55:15;26;25;
69123;PMS5003;56232;53.384;-2.732;2022-11-12T04:57:41;27;25;
69123;PMS5003;56232;53.384;-2.732;2022-11-12T05:00:07;27;22;
69123;PMS5003;56232;53.384;-2.732;2022-11-12T05:02:32;21;21;
69123;PMS5003;56232;53.384;-2.732;2022-11-12T05:04:57;23;23;
69123;PMS5003;56232;53.384;-2.732;2022-11-12T05:07:23;23;21;
69123;PMS5003;56232;53.384;-2.732;2022-11-12T05:09:48;19;19;
69123;PMS5003;56232;53.384;-2.732;2022-11-12T05:12:14;21;21;
69123;PMS5003;56232;53.384;-2.732;2022-11-12T05:14:40;20;20;
69123;PMS5003;56232;53.384;-2.732;2022-11-12T05:17:05;20;18;
69123;PMS5003;56232;53.384;-2.732;2022-11-12T05:19:31;20;18;
69123;PMS5003;56232;53.384;-2.732;2022-11-12T05:21:57;18;18;
69123;PMS5003;56232;53.384;-2.732;2022-11-12T05:24:22;27;22;
69123;PMS5003;56232;53.384;-2.732;2022-11-12T05:26:47;21;20;
69123;PMS5003;56232;53.384;-2.732;2022-11-12T05:29:13;20;19;
69123;PMS5003;56232;53.384;-2.732;2022-11-12T05:31:39;18;18;
69123;PMS5003;56232;53.384;-2.732;2022-11-12T05:34:04;21;19;
69123;PMS5003;56232;53.384;-2.732;2022-11-12T05:36:29;17;16;
69123;PMS5003;56232;53.384;-2.732;2022-11-12T05:38:55;18;17;
69123;PMS5003;56232;53.384;-2.732;2022-11-12T05:41:20;17;17;
69123;PMS5003;56232;53.384;-2.732;2022-11-12T05:43:46;17;17;
69123;PMS5003;56232;53.384;-2.732;2022-11-12T05:46:11;15;14;
69123;PMS5003;56232;53.384;-2.732;2022-11-12T05:48:36;23;18;
69123;PMS5003;56232;53.384;-2.732;2022-11-12T05:51:02;15;15;
69123;PMS5003;56232;53.384;-2.732;2022-11-12T05:53:33;17;16;
69123;PMS5003;56232;53.384;-2.732;2022-11-12T05:55:53;19;17;
69123;PMS5003;56232;53.384;-2.732;2022-11-12T05:58:18;18;17;
69123;PMS5003;56232;53.384;-2.732;2022-11-12T06:00:44;21;20;
69123;PMS5003;56232;53.384;-2.732;2022-11-12T06:03:11;16;15;
69123;PMS5003;56232;53.384;-2.732;2022-11-12T06:05:35;14;14;
69123;PMS5003;56232;53.384;-2.732;2022-11-12T06:08:00;16;16;
69123;PMS5003;56232;53.384;-2.732;2022-11-12T06:10:26;16;16;
69123;PMS5003;56232;53.384;-2.732;2022-11-12T06:12:51;17;17;
69123;PMS5003;56232;53.384;-2.732;2022-11-12T06:15:17;17;15;
69123;PMS5003;56232;53.384;-2.732;2022-11-12T06:17:42;16;16;
69123;PMS5003;56232;53.384;-2.732;2022-11-12T06:20:09;16;16;
69123;PMS5003;56232;53.384;-2.732;2022-11-12T06:22:34;15;14;
69123;PMS5003;56232;53.384;-2.732;2022-11-12T06:24:59;15;15;
69123;PMS5003;56232;53.384;-2.732;2022-11-12T06:27:25;15;15;
69123;PMS5003;56232;53.384;-2.732;2022-11-12T06:29:51;12;12;
69123;PMS5003;56232;53.384;-2.732;2022-11-12T06:32:16;17;17;
69123;PMS5003;56232;53.384;-2.732;2022-11-12T06:34:42;15;12;
69123;PMS5003;56232;53.384;-2.732;2022-11-12T06:37:08;14;13;
69123;PMS5003;56232;53.384;-2.732;2022-11-12T06:39:33;16;14;
69123;PMS5003;56232;53.384;-2.732;2022-11-12T06:41:59;12;11;
69123;PMS5003;56232;53.384;-2.732;2022-11-12T06:44:24;11;11;
69123;PMS5003;56232;53.384;-2.732;2022-11-12T06:46:49;14;12;
69123;PMS5003;56232;53.384;-2.732;2022-11-12T06:49:15;10;10;
69123;PMS5003;56232;53.384;-2.732;2022-11-12T06:51:40;11;11;
69123;PMS5003;56232;53.384;-2.732;2022-11-12T06:54:11;13;13;
69123;PMS5003;56232;53.384;-2.732;2022-11-12T06:56:31;14;14;
69123;PMS5003;56232;53.384;-2.732;2022-11-12T06:58:57;15;14;
69123;PMS5003;56232;53.384;-2.732;2022-11-12T07:01:22;15;12;
69123;PMS5003;56232;53.384;-2.732;2022-11-12T07:03:49;16;15;
69123;PMS5003;56232;53.384;-2.732;2022-11-12T07:06:14;18;16;
69123;PMS5003;56232;53.384;-2.732;2022-11-12T07:08:39;20;16;
69123;PMS5003;56232;53.384;-2.732;2022-11-12T07:11:05;17;16;
69123;PMS5003;56232;53.384;-2.732;2022-11-12T07:13:31;19;17;
69123;PMS5003;56232;53.384;-2.732;2022-11-12T07:15:56;17;15;
69123;PMS5003;56232;53.384;-2.732;2022-11-12T07:18:22;15;13;
69123;PMS5003;56232;53.384;-2.732;2022-11-12T07:20:47;13;13;
69123;PMS5003;56232;53.384;-2.732;2022-11-12T07:23:12;13;12;
69123;PMS5003;56232;53.384;-2.732;2022-11-12T07:25:38;18;13;
69123;PMS5003;56232;53.384;-2.732;2022-11-12T07:28:03;15;14;
69123;PMS5003;56232;53.384;-2.732;2022-11-12T07:30:29;16;15;
69123;PMS5003;56232;53.384;-2.732;2022-11-12T07:32:56;14;13;
69123;PMS5003;56232;53.384;-2.732;2022-11-12T07:35:19;15;14;
69123;PMS5003;56232;53.384;-2.732;2022-11-12T07:37:45;14;13;
69123;PMS5003;56232;53.384;-2.732;2022-11-12T07:40:11;14;13;
69123;PMS5003;56232;53.384;-2.732;2022-11-12T07:42:36;12;12;
69123;PMS5003;56232;53.384;-2.732;2022-11-12T07:45:02;12;12;
69123;PMS5003;56232;53.384;-2.732;2022-11-12T07:47:28;11;11;
69123;PMS5003;56232;53.384;-2.732;2022-11-12T07:49:53;13;13;
69123;PMS5003;56232;53.384;-2.732;2022-11-12T07:52:19;14;13;
69123;PMS5003;56232;53.384;-2.732;2022-11-12T07:54:45;17;15;
69123;PMS5003;56232;53.384;-2.732;2022-11-12T07:57:10;21;17;
69123;PMS5003;56232;53.384;-2.732;2022-11-12T07:59:35;16;16;
69123;PMS5003;56232;53.384;-2.732;2022-11-12T08:02:01;14;14;
69123;PMS5003;56232;53.384;-2.732;2022-11-12T08:04:27;14;14;
69123;PMS5003;56232;53.384;-2.732;2022-11-12T08:06:53;16;16;
69123;PMS5003;56232;53.384;-2.732;2022-11-12T08:09:18;21;19;
69123;PMS5003;56232;53.384;-2.732;2022-11-12T08:11:43;20;19;
69123;PMS5003;56232;53.384;-2.732;2022-11-12T08:14:09;20;20;
69123;PMS5003;56232;53.384;-2.732;2022-11-12T08:16:34;21;21;
69123;PMS5003;56232;53.384;-2.732;2022-11-12T08:19:00;21;21;
69123;PMS5003;56232;53.384;-2.732;2022-11-12T08:21:26;20;19;
69123;PMS5003;56232;53.384;-2.732;2022-11-12T08:23:52;19;18;
69123;PMS5003;56232;53.384;-2.732;2022-11-12T08:26:18;16;16;
69123;PMS5003;56232;53.384;-2.732;2022-11-12T08:28:43;14;14;
69123;PMS5003;56232;53.384;-2.732;2022-11-12T08:31:10;13;13;
69123;PMS5003;56232;53.384;-2.732;2022-11-12T08:33:34;15;15;
69123;PMS5003;56232;53.384;-2.732;2022-11-12T08:36:01;14;13;
69123;PMS5003;56232;53.384;-2.732;2022-11-12T08:38:25;13;13;
69123;PMS5003;56232;53.384;-2.732;2022-11-12T08:40:51;14;14;
69123;PMS5003;56232;53.384;-2.732;2022-11-12T08:43:17;16;16;
69123;PMS5003;56232;53.384;-2.732;2022-11-12T08:45:42;21;19;
69123;PMS5003;56232;53.384;-2.732;2022-11-12T08:48:09;16;15;
69123;PMS5003;56232;53.384;-2.732;2022-11-12T08:50:33;14;13;
69123;PMS5003;56232;53.384;-2.732;2022-11-12T08:52:59;16;15;
69123;PMS5003;56232;53.384;-2.732;2022-11-12T08:55:24;14;14;
69123;PMS5003;56232;53.384;-2.732;2022-11-12T08:57:50;13;13;
69123;PMS5003;56232;53.384;-2.732;2022-11-12T09:00:16;16;14;
69123;PMS5003;56232;53.384;-2.732;2022-11-12T09:02:41;11;11;
69123;PMS5003;56232;53.384;-2.732;2022-11-12T09:05:07;14;11;
69123;PMS5003;56232;53.384;-2.732;2022-11-12T09:07:32;12;12;
69123;PMS5003;56232;53.384;-2.732;2022-11-12T09:09:58;10;10;
69123;PMS5003;56232;53.384;-2.732;2022-11-12T09:12:23;17;13;
69123;PMS5003;56232;53.384;-2.732;2022-11-12T09:14:49;10;9;
69123;PMS5003;56232;53.384;-2.732;2022-11-12T09:17:14;9;9;
69123;PMS5003;56232;53.384;-2.732;2022-11-12T09:19:40;10;10;
69123;PMS5003;56232;53.384;-2.732;2022-11-12T09:22:05;11;11;
69123;PMS5003;56232;53.384;-2.732;2022-11-12T09:24:31;11;10;
69123;PMS5003;56232;53.384;-2.732;2022-11-12T09:26:56;10;10;
69123;PMS5003;56232;53.384;-2.732;2022-11-12T09:29:22;11;11;
69123;PMS5003;56232;53.384;-2.732;2022-11-12T09:31:48;10;10;
69123;PMS5003;56232;53.384;-2.732;2022-11-12T09:34:13;11;11;
69123;PMS5003;56232;53.384;-2.732;2022-11-12T09:36:39;12;11;
69123;PMS5003;56232;53.384;-2.732;2022-11-12T09:39:04;19;17;
69123;PMS5003;56232;53.384;-2.732;2022-11-12T09:41:31;36;34;
69123;PMS5003;56232;53.384;-2.732;2022-11-12T09:43:55;35;31;
69123;PMS5003;56232;53.384;-2.732;2022-11-12T09:48:46;20;19;
69123;PMS5003;56232;53.384;-2.732;2022-11-12T09:51:12;20;20;
69123;PMS5003;56232;53.384;-2.732;2022-11-12T09:53:38;22;22;
69123;PMS5003;56232;53.384;-2.732;2022-11-12T09:56:04;26;25;
69123;PMS5003;56232;53.384;-2.732;2022-11-12T09:58:27;13;13;
69123;PMS5003;56232;53.384;-2.732;2022-11-12T10:00:53;12;11;
69123;PMS5003;56232;53.384;-2.732;2022-11-12T10:03:20;10;10;
69123;PMS5003;56232;53.384;-2.732;2022-11-12T10:05:46;10;10;
69123;PMS5003;56232;53.384;-2.732;2022-11-12T10:08:17;11;11;
69123;PMS5003;56232;53.384;-2.732;2022-11-12T10:10:37;12;11;
69123;PMS5003;56232;53.384;-2.732;2022-11-12T10:13:04;9;9;
69123;PMS5003;56232;53.384;-2.732;2022-11-12T10:17:53;10;9;
69123;PMS5003;56232;53.384;-2.732;2022-11-12T10:20:18;9;8;
69123;PMS5003;56232;53.384;-2.732;2022-11-12T10:22:47;7;7;
69123;PMS5003;56232;53.384;-2.732;2022-11-12T10:25:11;10;10;
69123;PMS5003;56232;53.384;-2.732;2022-11-12T10:27:37;10;10;
69123;PMS5003;56232;53.384;-2.732;2022-11-12T10:30:00;9;9;
69123;PMS5003;56232;53.384;-2.732;2022-11-12T10:32:25;11;11;
69123;PMS5003;56232;53.384;-2.732;2022-11-12T10:34:50;10;9;
69123;PMS5003;56232;53.384;-2.732;2022-11-12T10:37:17;11;10;
69123;PMS5003;56232;53.384;-2.732;2022-11-12T10:39:42;12;10;
69123;PMS5003;56232;53.384;-2.732;2022-11-12T10:42:09;13;11;
69123;PMS5003;56232;53.384;-2.732;2022-11-12T10:44:33;14;11;
69123;PMS5003;56232;53.384;-2.732;2022-11-12T10:49:24;12;12;
69123;PMS5003;56232;53.384;-2.732;2022-11-12T10:51:53;10;10;
69123;PMS5003;56232;53.384;-2.732;2022-11-12T10:54:19;13;12;
69123;PMS5003;56232;53.384;-2.732;2022-11-12T10:56:41;13;12;
69123;PMS5003;56232;53.384;-2.732;2022-11-12T10:59:09;11;9;
69123;PMS5003;56232;53.384;-2.732;2022-11-12T11:01:32;14;12;
69123;PMS5003;56232;53.384;-2.732;2022-11-12T11:03:57;13;11;
69123;PMS5003;56232;53.384;-2.732;2022-11-12T11:06:24;10;10;
69123;PMS5003;56232;53.384;-2.732;2022-11-12T11:08:49;12;12;
69123;PMS5003;56232;53.384;-2.732;2022-11-12T11:13:40;11;11;
69123;PMS5003;56232;53.384;-2.732;2022-11-12T11:16:06;11;11;
69123;PMS5003;56232;53.384;-2.732;2022-11-12T11:18:32;11;11;
69123;PMS5003;56232;53.384;-2.732;2022-11-12T11:21:00;13;12;
69123;PMS5003;56232;53.384;-2.732;2022-11-12T11:23:22;13;13;
69123;PMS5003;56232;53.384;-2.732;2022-11-12T11:25:48;14;13;
69123;PMS5003;56232;53.384;-2.732;2022-11-12T11:28:15;15;14;
69123;PMS5003;56232;53.384;-2.732;2022-11-12T11:30:40;12;11;
69123;PMS5003;56232;53.384;-2.732;2022-11-12T11:35:35;12;12;
69123;PMS5003;56232;53.384;-2.732;2022-11-12T11:38:01;14;14;
69123;PMS5003;56232;53.384;-2.732;2022-11-12T11:40:24;11;11;
69123;PMS5003;56232;53.384;-2.732;2022-11-12T11:42:51;16;15;
69123;PMS5003;56232;53.384;-2.732;2022-11-12T11:45:14;14;13;
69123;PMS5003;56232;53.384;-2.732;2022-11-12T11:47:40;12;11;
69123;PMS5003;56232;53.384;-2.732;2022-11-12T11:50:08;12;10;
69123;PMS5003;56232;53.384;-2.732;2022-11-12T11:55:00;14;14;
69123;PMS5003;56232;53.384;-2.732;2022-11-12T11:57:21;15;15;
69123;PMS5003;56232;53.384;-2.732;2022-11-12T11:59:51;13;12;
69123;PMS5003;56232;53.384;-2.732;2022-11-12T12:04:41;14;13;
69123;PMS5003;56232;53.384;-2.732;2022-11-12T12:07:06;15;15;
69123;PMS5003;56232;53.384;-2.732;2022-11-12T12:09:30;15;14;
69123;PMS5003;56232;53.384;-2.732;2022-11-12T12:11:56;17;17;
69123;PMS5003;56232;53.384;-2.732;2022-11-12T12:14:24;14;14;
69123;PMS5003;56232;53.384;-2.732;2022-11-12T12:16:48;15;15;
69123;PMS5003;56232;53.384;-2.732;2022-11-12T12:19:15;15;15;
69123;PMS5003;56232;53.384;-2.732;2022-11-12T12:21:37;18;16;
69123;PMS5003;56232;53.384;-2.732;2022-11-12T12:24:03;17;17;
69123;PMS5003;56232;53.384;-2.732;2022-11-12T12:26:30;16;16;
69123;PMS5003;56232;53.384;-2.732;2022-11-12T12:28:55;15;15;
69123;PMS5003;56232;53.384;-2.732;2022-11-12T12:31:20;14;14;
69123;PMS5003;56232;53.384;-2.732;2022-11-12T12:33:46;20;20;
69123;PMS5003;56232;53.384;-2.732;2022-11-12T12:36:11;16;15;
69123;PMS5003;56232;53.384;-2.732;2022-11-12T12:38:36;15;14;
69123;PMS5003;56232;53.384;-2.732;2022-11-12T12:41:02;15;15;
69123;PMS5003;56232;53.384;-2.732;2022-11-12T12:43:28;18;18;
69123;PMS5003;56232;53.384;-2.732;2022-11-12T12:45:52;15;15;
69123;PMS5003;56232;53.384;-2.732;2022-11-12T12:48:19;15;15;
69123;PMS5003;56232;53.384;-2.732;2022-11-12T12:50:43;18;17;
69123;PMS5003;56232;53.384;-2.732;2022-11-12T12:53:15;21;18;
69123;PMS5003;56232;53.384;-2.732;2022-11-12T12:55:37;20;17;
69123;PMS5003;56232;53.384;-2.732;2022-11-12T12:58:00;18;18;
69123;PMS5003;56232;53.384;-2.732;2022-11-12T13:00:26;22;19;
69123;PMS5003;56232;53.384;-2.732;2022-11-12T13:02:51;19;19;
69123;PMS5003;56232;53.384;-2.732;2022-11-12T13:07:43;19;18;
69123;PMS5003;56232;53.384;-2.732;2022-11-12T13:27:05;21;21;
69123;PMS5003;56232;53.384;-2.732;2022-11-12T13:34:21;18;18;
69123;PMS5003;56232;53.384;-2.732;2022-11-12T13:39:12;19;18;
69123;PMS5003;56232;53.384;-2.732;2022-11-12T13:41:36;22;21;
69123;PMS5003;56232;53.384;-2.732;2022-11-12T13:44:03;19;18;
69123;PMS5003;56232;53.384;-2.732;2022-11-12T13:46:28;19;19;
69123;PMS5003;56232;53.384;-2.732;2022-11-12T13:48:55;20;20;
69123;PMS5003;56232;53.384;-2.732;2022-11-12T13:51:19;23;22;
69123;PMS5003;56232;53.384;-2.732;2022-11-12T13:53:43;21;21;
69123;PMS5003;56232;53.384;-2.732;2022-11-12T13:56:09;24;23;
69123;PMS5003;56232;53.384;-2.732;2022-11-12T13:58:34;21;21;
69123;PMS5003;56232;53.384;-2.732;2022-11-12T14:00:59;20;20;
69123;PMS5003;56232;53.384;-2.732;2022-11-12T14:03:25;20;20;
69123;PMS5003;56232;53.384;-2.732;2022-11-12T14:05:50;24;23;
69123;PMS5003;56232;53.384;-2.732;2022-11-12T14:08:23;26;24;
69123;PMS5003;56232;53.384;-2.732;2022-11-12T14:10:43;29;25;
69123;PMS5003;56232;53.384;-2.732;2022-11-12T14:13:11;26;26;
69123;PMS5003;56232;53.384;-2.732;2022-11-12T14:15:35;29;29;
69123;PMS5003;56232;53.384;-2.732;2022-11-12T14:18:00;27;27;
69123;PMS5003;56232;53.384;-2.732;2022-11-12T14:20:23;27;23;
69123;PMS5003;56232;53.384;-2.732;2022-11-12T14:22:48;26;25;
69123;PMS5003;56232;53.384;-2.732;2022-11-12T14:25:15;30;25;
69123;PMS5003;56232;53.384;-2.732;2022-11-12T14:27:39;24;24;
69123;PMS5003;56232;53.384;-2.732;2022-11-12T14:32:34;28;28;
69123;PMS5003;56232;53.384;-2.732;2022-11-12T14:34:55;30;28;
69123;PMS5003;56232;53.384;-2.732;2022-11-12T14:39:45;29;28;
69123;PMS5003;56232;53.384;-2.732;2022-11-12T14:42:11;30;29;
69123;PMS5003;56232;53.384;-2.732;2022-11-12T14:44:36;23;23;
69123;PMS5003;56232;53.384;-2.732;2022-11-12T14:47:01;23;22;
69123;PMS5003;56232;53.384;-2.732;2022-11-12T14:49:31;29;24;
69123;PMS5003;56232;53.384;-2.732;2022-11-12T14:51:54;24;23;
69123;PMS5003;56232;53.384;-2.732;2022-11-12T14:54:21;28;26;
69123;PMS5003;56232;53.384;-2.732;2022-11-12T14:56:44;30;25;
69123;PMS5003;56232;53.384;-2.732;2022-11-12T14:59:09;32;26;
69123;PMS5003;56232;53.384;-2.732;2022-11-12T15:01:35;27;25;
69123;PMS5003;56232;53.384;-2.732;2022-11-12T15:04:03;23;23;
69123;PMS5003;56232;53.384;-2.732;2022-11-12T15:06:28;25;24;
69123;PMS5003;56232;53.384;-2.732;2022-11-12T15:08:55;23;23;
69123;PMS5003;56232;53.384;-2.732;2022-11-12T15:11:18;27;27;
69123;PMS5003;56232;53.384;-2.732;2022-11-12T15:13:41;22;22;
69123;PMS5003;56232;53.384;-2.732;2022-11-12T15:16:07;21;21;
69123;PMS5003;56232;53.384;-2.732;2022-11-12T15:18:33;24;23;
69123;PMS5003;56232;53.384;-2.732;2022-11-12T15:21:01;26;26;
69123;PMS5003;56232;53.384;-2.732;2022-11-12T15:23:24;24;24;
69123;PMS5003;56232;53.384;-2.732;2022-11-12T15:28:19;28;27;
69123;PMS5003;56232;53.384;-2.732;2022-11-12T15:30:39;24;23;
69123;PMS5003;56232;53.384;-2.732;2022-11-12T15:33:06;26;23;
69123;PMS5003;56232;53.384;-2.732;2022-11-12T15:35:31;26;26;
69123;PMS5003;56232;53.384;-2.732;2022-11-12T15:37:56;26;25;
69123;PMS5003;56232;53.384;-2.732;2022-11-12T15:40:21;24;23;
69123;PMS5003;56232;53.384;-2.732;2022-11-12T15:42:47;31;29;
69123;PMS5003;56232;53.384;-2.732;2022-11-12T15:45:13;31;31;
69123;PMS5003;56232;53.384;-2.732;2022-11-12T15:47:37;26;26;
69123;PMS5003;56232;53.384;-2.732;2022-11-12T15:50:09;29;26;
69123;PMS5003;56232;53.384;-2.732;2022-11-12T15:52:28;30;26;
69123;PMS5003;56232;53.384;-2.732;2022-11-12T15:54:53;33;28;
69123;PMS5003;56232;53.384;-2.732;2022-11-12T15:57:20;36;34;
69123;PMS5003;56232;53.384;-2.732;2022-11-12T15:59:44;29;28;
69123;PMS5003;56232;53.384;-2.732;2022-11-12T16:02:10;33;32;
69123;PMS5003;56232;53.384;-2.732;2022-11-12T16:04:34;34;28;
69123;PMS5003;56232;53.384;-2.732;2022-11-12T16:07:00;30;29;
69123;PMS5003;56232;53.384;-2.732;2022-11-12T16:09:25;27;24;
69123;PMS5003;56232;53.384;-2.732;2022-11-12T16:11:51;32;28;
69123;PMS5003;56232;53.384;-2.732;2022-11-12T16:14:17;30;26;
69123;PMS5003;56232;53.384;-2.732;2022-11-12T16:16:42;35;30;
69123;PMS5003;56232;53.384;-2.732;2022-11-12T16:19:10;27;26;
69123;PMS5003;56232;53.384;-2.732;2022-11-12T16:21:33;35;31;
69123;PMS5003;56232;53.384;-2.732;2022-11-12T16:23:58;32;29;
69123;PMS5003;56232;53.384;-2.732;2022-11-12T16:26:25;36;32;
69123;PMS5003;56232;53.384;-2.732;2022-11-12T16:28:49;37;35;
69123;PMS5003;56232;53.384;-2.732;2022-11-12T16:31:14;30;30;
69123;PMS5003;56232;53.384;-2.732;2022-11-12T16:33:39;32;30;
69123;PMS5003;56232;53.384;-2.732;2022-11-12T16:38:30;31;30;
69123;PMS5003;56232;53.384;-2.732;2022-11-12T16:40:56;39;33;
69123;PMS5003;56232;53.384;-2.732;2022-11-12T16:43:22;32;30;
69123;PMS5003;56232;53.384;-2.732;2022-11-12T16:45:47;40;34;